Time;durP1;ratioP1;P1;durP2;ratioP2;P2;SDS_P1;SDS_P2;PMS_P1;PMS_P2;Temp;Humidity;BMP_temperature;BMP_pressure;BME280_temperature;BME280_humidity;BME280_pressure;Samples;Min_cycle;Max_cycle;Signal;HPM_P1;HPM_P2
2024/02/12 00:01:13;;;;;;;28.00;16.30;;;;;;;9.87;100.00;98237.66;674976;1265;139874;-81
2024/02/12 00:16:20;;;;;;;30.10;17.80;;;;;;;9.90;100.00;98225.06;673592;1265;140160;-81
2024/02/12 00:31:26;;;;;;;30.10;17.00;;;;;;;9.86;100.00;98223.95;678937;1265;138976;-79
2024/02/12 00:46:29;;;;;;;32.40;18.50;;;;;;;9.84;100.00;98225.58;674107;1265;139695;-82
2024/02/12 01:01:34;;;;;;;32.70;17.80;;;;;;;9.90;100.00;98219.29;679287;1265;139457;-79
2024/02/12 01:16:37;;;;;;;28.80;17.70;;;;;;;9.92;100.00;98211.58;676817;1265;138803;-80
2024/02/12 01:31:41;;;;;;;34.40;19.00;;;;;;;9.91;100.00;98206.59;679885;1264;142376;-79
2024/02/12 01:46:48;;;;;;;41.00;21.20;;;;;;;9.85;100.00;98202.23;678651;1265;139325;-80
2024/02/12 02:01:52;;;;;;;42.00;21.40;;;;;;;9.89;100.00;98194.79;675137;1265;141318;-79
2024/02/12 02:16:56;;;;;;;50.00;23.10;;;;;;;9.97;100.00;98181.95;674032;1267;141418;-80
2024/02/12 02:32:01;;;;;;;41.20;21.80;;;;;;;9.99;100.00;98179.66;680747;1265;139162;-80
2024/02/12 02:47:04;;;;;;;45.00;21.80;;;;;;;9.88;100.00;98179.91;681521;1266;139098;-80
2024/02/12 03:02:12;;;;;;;41.20;22.00;;;;;;;9.88;100.00;98182.36;680215;1265;139846;-79
2024/02/12 03:17:16;;;;;;;128.50;54.40;;;;;;;9.84;100.00;98172.16;677127;1267;139341;-79
2024/02/12 03:32:19;;;;;;;58.50;28.20;;;;;;;9.88;100.00;98177.24;677710;1276;139680;-79
2024/02/12 03:47:27;;;;;;;45.00;23.10;;;;;;;9.86;100.00;98180.55;675768;1264;140684;-79
2024/02/12 04:02:32;;;;;;;61.00;28.90;;;;;;;9.90;100.00;98177.72;679991;1274;139274;-80
2024/02/12 04:17:37;;;;;;;50.70;25.10;;;;;;;9.92;100.00;98173.84;680735;1262;140759;-79
2024/02/12 04:32:42;;;;;;;60.30;25.70;;;;;;;10.02;100.00;98176.69;679263;1263;139776;-79
2024/02/12 04:47:49;;;;;;;51.50;22.20;;;;;;;10.11;100.00;98167.89;679222;1263;139291;-79
2024/02/12 05:02:53;;;;;;;47.10;21.70;;;;;;;10.09;100.00;98166.61;676343;1261;139088;-79
2024/02/12 05:33:22;;;;;;;67.20;31.80;;;;;;;10.29;100.00;98177.88;673893;1264;139712;-81
2024/02/12 05:48:26;;;;;;;101.80;44.80;;;;;;;10.33;100.00;98188.87;680687;1259;139392;-80
2024/02/12 06:03:30;;;;;;;82.50;40.60;;;;;;;10.34;100.00;98194.86;677719;1260;139382;-80
2024/02/12 06:18:34;;;;;;;64.50;30.00;;;;;;;10.38;100.00;98207.38;674020;1263;139998;-80
2024/02/12 06:33:38;;;;;;;60.90;28.60;;;;;;;10.38;100.00;98215.15;678227;1264;139199;-82
2024/02/12 06:48:42;;;;;;;57.70;27.60;;;;;;;10.41;100.00;98221.76;676682;1263;139617;-81
2024/02/12 07:03:46;;;;;;;80.90;35.90;;;;;;;10.49;100.00;98231.98;675359;1263;139184;-81
2024/02/12 07:18:50;;;;;;;78.50;35.70;;;;;;;10.71;100.00;98239.14;678305;1264;139857;-81
2024/02/12 07:33:54;;;;;;;78.10;36.60;;;;;;;10.81;100.00;98237.55;681118;1264;139936;-81
2024/02/12 07:48:58;;;;;;;62.20;29.40;;;;;;;10.87;100.00;98243.98;679720;1261;139311;-81
2024/02/12 08:04:03;;;;;;;55.20;26.30;;;;;;;11.05;100.00;98252.34;680508;1262;139699;-81
2024/02/12 08:19:07;;;;;;;45.80;22.40;;;;;;;11.17;100.00;98262.95;679229;1262;139828;-81
2024/02/12 08:34:12;;;;;;;40.60;22.80;;;;;;;11.26;100.00;98271.50;681388;1263;139226;-81
2024/02/12 08:49:18;;;;;;;33.10;18.60;;;;;;;11.37;100.00;98284.08;681354;1262;139526;-81
2024/02/12 09:04:23;;;;;;;34.00;15.80;;;;;;;11.38;100.00;98294.88;681834;1262;140275;-81
2024/02/12 09:19:27;;;;;;;24.10;14.90;;;;;;;11.37;100.00;98305.45;678018;1262;139635;-81
2024/02/12 09:34:32;;;;;;;21.10;12.90;;;;;;;11.31;100.00;98323.71;681751;1262;206337;-81
2024/02/12 09:49:38;;;;;;;15.90;10.70;;;;;;;11.34;100.00;98338.30;678674;1263;141287;-81
2024/02/12 10:04:44;;;;;;;16.20;9.80;;;;;;;11.31;100.00;98352.84;680298;1262;140283;-82
2024/02/12 10:19:49;;;;;;;15.10;8.60;;;;;;;11.29;100.00;98365.78;678272;1260;139137;-81
2024/02/12 10:34:55;;;;;;;36.80;12.50;;;;;;;11.12;100.00;98369.52;677622;1260;138951;-80
2024/02/12 10:49:59;;;;;;;49.70;36.90;;;;;;;11.16;100.00;98375.21;681125;1259;139919;-80
2024/02/12 11:19:55;;;;;;;186.50;94.10;;;;;;;11.17;100.00;98390.48;661296;1298;545123;-82
2024/02/12 11:35:12;;;;;;;34.70;21.50;;;;;;;11.09;100.00;98397.74;674139;1275;140359;-83
2024/02/12 11:50:25;;;;;;;52.10;26.30;;;;;;;11.07;100.00;98401.97;671384;1275;139111;-82
2024/02/12 12:05:31;;;;;;;34.90;17.00;;;;;;;11.07;100.00;98409.86;674505;1274;139323;-83
2024/02/12 12:20:40;;;;;;;83.30;45.90;;;;;;;10.95;100.00;98410.91;673019;1272;139539;-83
2024/02/12 12:35:47;;;;;;;19.30;11.60;;;;;;;10.85;100.00;98419.05;681033;1262;138691;-83
2024/02/12 12:50:52;;;;;;;21.30;13.20;;;;;;;10.82;100.00;98423.46;675785;1265;138987;-82
2024/02/12 13:06:04;;;;;;;16.40;10.80;;;;;;;10.94;100.00;98433.45;674858;1266;139697;-84
2024/02/12 13:21:08;;;;;;;22.80;12.60;;;;;;;10.83;100.00;98442.69;677329;1262;139527;-84
2024/02/12 13:36:15;;;;;;;22.30;13.40;;;;;;;10.82;100.00;98461.92;679743;1264;139458;-83
2024/02/12 13:51:21;;;;;;;33.50;15.20;;;;;;;10.83;100.00;98475.77;679820;1263;138614;-83
2024/02/12 14:06:25;;;;;;;29.80;19.20;;;;;;;10.53;100.00;98488.02;676621;1263;139590;-83
2024/02/12 14:21:30;;;;;;;18.40;13.80;;;;;;;10.50;100.00;98501.61;677923;1263;139582;-83
2024/02/12 14:36:36;;;;;;;14.00;9.10;;;;;;;10.27;100.00;98523.11;677304;1263;139558;-83
2024/02/12 14:51:40;;;;;;;7.90;5.90;;;;;;;10.19;100.00;98537.71;676070;1263;138802;-83
2024/02/12 15:06:44;;;;;;;14.00;8.20;;;;;;;9.95;100.00;98556.95;675931;1264;139213;-82
2024/02/12 15:21:49;;;;;;;27.20;11.30;;;;;;;9.89;100.00;98575.83;677765;1259;138908;-83
2024/02/12 15:36:54;;;;;;;21.20;8.90;;;;;;;9.79;100.00;98598.05;677546;1263;139414;-83
2024/02/12 15:51:59;;;;;;;20.60;9.70;;;;;;;9.62;100.00;98617.73;675500;1260;139366;-82
2024/02/12 16:07:06;;;;;;;13.00;6.30;;;;;;;9.38;100.00;98639.36;679797;1264;139460;-84
2024/02/12 16:22:12;;;;;;;19.10;8.90;;;;;;;9.17;100.00;98657.06;675763;1264;139449;-82
2024/02/12 16:37:17;;;;;;;10.50;6.10;;;;;;;9.16;100.00;98682.84;678644;1262;139380;-80
2024/02/12 16:52:22;;;;;;;13.40;7.20;;;;;;;9.05;100.00;98698.90;677302;1264;139579;-82
2024/02/12 17:07:30;;;;;;;16.80;7.70;;;;;;;8.93;100.00;98720.52;675756;1262;139216;-83
2024/02/12 17:22:36;;;;;;;15.80;6.20;;;;;;;8.74;100.00;98745.23;677277;1264;138850;-82
2024/02/12 17:37:41;;;;;;;17.30;8.10;;;;;;;8.67;100.00;98768.63;677626;1264;138628;-81
2024/02/12 17:52:45;;;;;;;23.30;12.30;;;;;;;8.56;100.00;98783.89;676916;1264;139746;-82
2024/02/12 18:07:48;;;;;;;12.10;6.20;;;;;;;8.50;100.00;98800.06;675672;1262;141978;-83
2024/02/12 18:22:55;;;;;;;11.10;6.90;;;;;;;8.34;100.00;98812.00;675632;1266;139079;-82
2024/02/12 18:38:04;;;;;;;18.40;10.20;;;;;;;8.26;100.00;98820.17;674195;1264;139726;-82
2024/02/12 18:53:10;;;;;;;16.50;8.50;;;;;;;8.21;100.00;98835.98;675550;1264;139884;-82
2024/02/12 19:08:15;;;;;;;17.00;9.00;;;;;;;8.16;100.00;98853.21;678766;1266;138827;-82
2024/02/12 19:23:19;;;;;;;12.00;6.50;;;;;;;8.10;100.00;98867.39;679527;1275;138591;-81
2024/02/12 19:38:23;;;;;;;13.00;6.30;;;;;;;7.93;100.00;98881.75;680415;1263;139050;-81
2024/02/12 19:53:27;;;;;;;22.60;10.60;;;;;;;7.99;100.00;98906.52;677383;1263;138771;-82
2024/02/12 20:08:32;;;;;;;9.70;5.90;;;;;;;8.04;100.00;98926.98;676626;1263;139541;-81
2024/02/12 20:23:36;;;;;;;10.60;6.20;;;;;;;7.99;100.00;98943.84;677258;1263;138443;-81
2024/02/12 20:38:41;;;;;;;12.10;6.20;;;;;;;8.01;100.00;98963.83;679566;1264;139106;-82
2024/02/12 20:53:45;;;;;;;14.10;7.70;;;;;;;8.02;100.00;98978.04;676843;1263;138702;-82
2024/02/12 21:08:52;;;;;;;12.70;6.40;;;;;;;7.87;100.00;98988.70;676145;1263;139254;-82
2024/02/12 21:23:55;;;;;;;12.30;6.40;;;;;;;7.83;100.00;99011.20;678245;1269;138889;-82
2024/02/12 21:39:09;;;;;;;20.20;8.20;;;;;;;7.83;100.00;99024.96;677262;1265;139164;-81
2024/02/12 21:54:13;;;;;;;24.80;10.10;;;;;;;7.66;100.00;99041.13;676742;1273;138488;-81
2024/02/12 22:09:17;;;;;;;12.10;6.40;;;;;;;7.64;100.00;99059.46;680120;1274;139263;-82
2024/02/12 22:24:20;;;;;;;18.60;9.60;;;;;;;7.61;100.00;99080.09;677936;1266;140439;-81
2024/02/12 22:39:24;;;;;;;21.00;8.50;;;;;;;7.53;100.00;99093.54;675082;1273;138928;-81
2024/02/12 22:54:27;;;;;;;10.90;5.60;;;;;;;7.45;100.00;99115.91;676775;1264;138817;-81
2024/02/12 23:09:31;;;;;;;12.80;6.30;;;;;;;7.43;100.00;99141.13;680572;1263;140284;-81
2024/02/12 23:24:38;;;;;;;10.70;6.00;;;;;;;7.29;100.00;99160.50;676588;1263;197429;-82
2024/02/12 23:39:42;;;;;;;11.60;5.80;;;;;;;7.25;100.00;99181.58;676139;1264;138546;-80
2024/02/12 23:54:48;;;;;;;6.30;3.90;;;;;;;7.06;100.00;99200.79;675722;1261;141562;-82
